createdAt,value
2023-06-10T00:00:19.056Z,4.75
2023-06-10T00:04:56.820Z,5.03
2023-06-10T00:13:34.695Z,4.28
2023-06-10T00:17:54.363Z,4.93
2023-06-10T00:22:14.215Z,4.63
2023-06-10T00:26:31.892Z,4.97
2023-06-10T00:30:49.452Z,5.70
2023-06-10T00:35:08.626Z,6.18
2023-06-10T00:39:26.633Z,5.57
2023-06-10T00:43:45.433Z,5.90
2023-06-10T00:48:03.544Z,5.38
2023-06-10T00:52:24.087Z,5.85
2023-06-10T00:56:44.395Z,6.32
2023-06-10T01:01:04.307Z,5.55
2023-06-10T01:05:23.640Z,5.47
2023-06-10T01:09:58.532Z,5.72
2023-06-10T01:14:18.611Z,5.72
2023-06-10T01:18:37.124Z,5.20
2023-06-10T01:22:56.114Z,5.93
2023-06-10T01:27:17.458Z,5.30
2023-06-10T01:32:03.435Z,5.05
2023-06-10T01:36:22.981Z,5.00
2023-06-10T01:40:41.947Z,5.10
2023-06-10T01:45:00.688Z,5.03
2023-06-10T01:49:18.441Z,4.95
2023-06-10T01:53:36.851Z,4.95
2023-06-10T01:57:55.543Z,4.25
2023-06-10T02:02:13.740Z,4.93
2023-06-10T02:06:32.743Z,4.68
2023-06-10T02:10:51.408Z,3.90
2023-06-10T02:15:10.041Z,3.90
2023-06-10T02:19:29.393Z,4.32
2023-06-10T02:23:47.106Z,4.75
2023-06-10T02:28:07.074Z,3.53
2023-06-10T02:32:24.934Z,3.90
2023-06-10T02:41:00.571Z,4.25
2023-06-10T02:45:20.693Z,3.80
2023-06-10T02:49:38.434Z,4.07
2023-06-10T02:53:56.073Z,4.10
2023-06-10T02:58:14.062Z,4.05
2023-06-10T03:02:33.512Z,3.63
2023-06-10T03:06:52.020Z,3.75
2023-06-10T03:11:09.898Z,3.80
2023-06-10T03:24:04.491Z,3.17
2023-06-10T03:28:23.734Z,3.05
2023-06-10T03:32:42.669Z,2.90
2023-06-10T03:37:00.503Z,3.67
2023-06-10T03:45:37.310Z,3.42
2023-06-10T03:49:54.927Z,4.28
2023-06-10T03:54:12.985Z,3.75
2023-06-10T03:58:31.309Z,4.57
2023-06-10T04:02:50.983Z,2.92
2023-06-10T04:07:09.978Z,3.70
2023-06-10T04:11:27.795Z,3.70
2023-06-10T04:20:05.247Z,3.25
2023-06-10T04:24:23.575Z,3.58
2023-06-10T04:28:41.283Z,3.60
2023-06-10T04:33:00.493Z,3.60
2023-06-10T04:37:18.394Z,3.03
2023-06-10T04:50:13.077Z,3.03
2023-06-10T04:54:31.248Z,3.00
2023-06-10T04:58:48.853Z,3.45
2023-06-10T05:03:07.075Z,2.40
2023-06-10T05:07:25.443Z,2.90
2023-06-10T05:16:00.756Z,2.50
2023-06-10T05:24:36.358Z,2.63
2023-06-10T05:28:54.716Z,2.45
2023-06-10T05:33:12.424Z,2.75
2023-06-10T05:37:31.412Z,3.05
2023-06-10T05:41:49.012Z,3.17
2023-06-10T05:46:06.936Z,3.40
2023-06-10T05:50:26.536Z,3.30
2023-06-10T05:54:44.105Z,2.45
2023-06-10T05:59:03.260Z,2.60
2023-06-10T06:03:20.993Z,2.78
2023-06-10T06:07:40.279Z,2.92
2023-06-10T06:11:58.120Z,2.67
2023-06-10T06:16:16.082Z,3.08
2023-06-10T06:20:34.228Z,2.58
2023-06-10T06:24:52.710Z,3.30
2023-06-10T06:29:10.415Z,3.08
2023-06-10T06:33:28.104Z,3.03
2023-06-10T06:37:47.229Z,2.88
2023-06-10T06:42:05.548Z,2.80
2023-06-10T06:46:23.652Z,2.72
2023-06-10T06:50:43.335Z,2.53
2023-06-10T06:55:01.934Z,3.28
2023-06-10T06:59:21.158Z,2.28
2023-06-10T07:03:38.790Z,2.65
2023-06-10T07:07:57.798Z,2.55
2023-06-10T07:16:33.369Z,2.53
2023-06-10T07:25:09.832Z,2.38
2023-06-10T07:29:27.793Z,2.42
2023-06-10T07:33:46.199Z,2.42
2023-06-10T07:38:04.551Z,2.28
2023-06-10T07:42:22.108Z,2.15
2023-06-10T07:46:41.320Z,2.38
2023-06-10T07:50:59.075Z,2.70
2023-06-10T07:59:37.008Z,2.63
2023-06-10T08:03:56.122Z,2.28
2023-06-10T08:08:15.672Z,2.65
2023-06-10T08:12:35.554Z,2.72
2023-06-10T08:16:54.860Z,2.70
2023-06-10T08:21:12.515Z,2.47
2023-06-10T08:25:31.145Z,2.63
2023-06-10T08:29:49.550Z,2.63
2023-06-10T08:34:07.155Z,2.95
2023-06-10T08:38:25.928Z,2.70
2023-06-10T08:42:53.097Z,2.45
2023-06-10T08:47:17.231Z,2.53
2023-06-10T08:51:37.896Z,2.35
2023-06-10T08:56:00.358Z,2.35
2023-06-10T09:00:18.469Z,2.88
2023-06-10T09:04:37.550Z,2.28
2023-06-10T09:09:00.892Z,2.38
2023-06-10T09:13:21.163Z,2.78
2023-06-10T09:17:39.370Z,2.30
2023-06-10T09:21:57.825Z,1.77
2023-06-10T09:26:17.001Z,2.60
2023-06-10T09:30:36.062Z,2.22
2023-06-10T09:34:54.537Z,1.75
2023-06-10T09:39:19.350Z,2.40
2023-06-10T09:43:55.389Z,2.53
2023-06-10T09:48:14.528Z,1.95
2023-06-10T09:52:33.119Z,2.35
2023-06-10T09:56:53.384Z,2.22
2023-06-10T10:01:14.130Z,1.80
2023-06-10T10:05:31.975Z,2.33
2023-06-10T10:09:51.824Z,2.38
2023-06-10T10:14:10.900Z,1.92
2023-06-10T10:18:32.892Z,1.92
2023-06-10T10:22:53.941Z,1.75
2023-06-10T10:27:54.019Z,2.03
2023-06-10T10:32:16.067Z,1.92
2023-06-10T10:36:34.369Z,1.90
2023-06-10T10:40:53.295Z,1.85
2023-06-10T10:45:12.446Z,2.05
2023-06-10T10:49:32.439Z,2.15
2023-06-10T10:54:15.574Z,2.10
2023-06-10T10:58:36.042Z,2.17
2023-06-10T11:02:57.385Z,1.90
2023-06-10T11:07:23.289Z,2.00
2023-06-10T11:11:51.503Z,1.98
2023-06-10T11:16:11.719Z,2.25
2023-06-10T11:20:59.849Z,2.30
2023-06-10T11:25:18.041Z,2.10
2023-06-10T11:29:35.728Z,2.10
2023-06-10T11:34:06.957Z,1.80
2023-06-10T11:38:24.764Z,2.40
2023-06-10T11:42:44.310Z,1.98
2023-06-10T11:47:01.942Z,1.70
2023-06-10T11:51:21.357Z,1.65
2023-06-10T11:55:52.645Z,1.50
2023-06-10T12:00:10.725Z,1.98
2023-06-10T12:04:28.417Z,1.38
2023-06-10T12:08:46.303Z,1.45
2023-06-10T12:13:06.833Z,1.48
2023-06-10T12:17:34.522Z,1.52
2023-06-10T12:21:54.849Z,1.75
2023-06-10T12:26:12.468Z,1.60
2023-06-10T12:30:31.358Z,1.80
2023-06-10T12:34:49.597Z,1.55
2023-06-10T12:39:07.801Z,1.70
2023-06-10T12:43:26.435Z,1.58
2023-06-10T12:47:44.101Z,1.50
2023-06-10T12:52:02.945Z,2.10
2023-06-10T12:56:21.481Z,1.58
2023-06-10T13:00:40.244Z,1.75
2023-06-10T13:04:57.558Z,1.70
2023-06-10T13:09:16.691Z,1.40
2023-06-10T13:13:36.556Z,1.38
2023-06-10T13:17:54.625Z,1.67
2023-06-10T13:22:14.175Z,2.00
2023-06-10T13:26:32.626Z,1.48
2023-06-10T13:30:51.279Z,1.70
2023-06-10T13:35:10.602Z,1.70
2023-06-10T13:39:29.125Z,1.38
2023-06-10T13:43:47.473Z,1.83
2023-06-10T13:48:08.197Z,2.03
2023-06-10T13:52:26.242Z,1.50
2023-06-10T13:56:44.033Z,1.77
2023-06-10T14:01:03.214Z,1.60
2023-06-10T14:05:21.828Z,2.20
2023-06-10T14:09:41.792Z,1.83
2023-06-10T14:14:00.913Z,2.55
2023-06-10T14:18:19.088Z,2.30
2023-06-10T14:22:37.066Z,2.55
2023-06-10T14:31:13.101Z,6.28
2023-06-10T14:39:49.960Z,2.65
2023-06-10T14:44:08.590Z,1.90
2023-06-10T14:48:28.928Z,2.80
2023-06-10T14:52:46.959Z,2.53
2023-06-10T14:57:04.858Z,2.65
2023-06-10T15:01:23.436Z,1.92
2023-06-10T15:05:41.140Z,1.92
2023-06-10T15:14:16.493Z,1.40
2023-06-10T15:18:34.745Z,1.23
2023-06-10T15:22:52.731Z,1.50
2023-06-10T15:31:29.737Z,1.90
2023-06-10T15:35:47.392Z,1.52
2023-06-10T15:44:24.267Z,1.40
2023-06-10T15:48:43.243Z,1.98
2023-06-10T15:53:01.580Z,1.60
2023-06-10T15:57:23.456Z,1.55
2023-06-10T16:01:42.686Z,1.95
2023-06-10T16:06:01.797Z,1.98
2023-06-10T16:10:20.417Z,1.60
2023-06-10T16:14:38.020Z,1.60
2023-06-10T16:18:56.277Z,1.50
2023-06-10T16:23:14.798Z,1.52
2023-06-10T16:27:32.376Z,1.60
2023-06-10T16:31:51.336Z,1.73
2023-06-10T16:36:08.558Z,1.60
2023-06-10T16:40:26.792Z,2.03
2023-06-10T16:44:44.917Z,1.67
2023-06-10T16:49:03.527Z,2.00
2023-06-10T16:53:21.220Z,1.55
2023-06-10T16:57:39.757Z,1.95
2023-06-10T17:01:59.217Z,1.75
2023-06-10T17:06:19.586Z,1.48
2023-06-10T17:10:37.565Z,1.48
2023-06-10T17:14:55.578Z,1.92
2023-06-10T17:19:13.910Z,1.35
2023-06-10T17:23:32.002Z,1.48
2023-06-10T17:27:51.994Z,2.60
2023-06-10T17:32:10.618Z,2.95
2023-06-10T17:36:29.284Z,1.58
2023-06-10T17:40:47.088Z,1.55
2023-06-10T17:45:04.957Z,1.70
2023-06-10T17:49:31.610Z,1.55
2023-06-10T17:53:51.492Z,1.67
2023-06-10T17:58:09.562Z,1.48
2023-06-10T18:02:27.390Z,2.35
2023-06-10T18:11:04.369Z,2.67
2023-06-10T18:15:22.536Z,2.00
2023-06-10T18:19:40.540Z,1.85
2023-06-10T18:23:58.929Z,12.70
2023-06-10T18:28:17.557Z,11.57
2023-06-10T18:32:35.728Z,5.78
2023-06-10T18:36:55.356Z,5.90
2023-06-10T18:41:13.606Z,5.35
2023-06-10T18:45:31.958Z,3.50
2023-06-10T18:49:49.707Z,3.50
2023-06-10T18:58:25.972Z,5.68
2023-06-10T19:02:46.295Z,4.00
2023-06-10T19:07:04.719Z,6.07
2023-06-10T19:11:23.185Z,6.28
2023-06-10T19:15:42.657Z,10.55
2023-06-10T19:20:00.584Z,7.65
2023-06-10T19:24:21.418Z,4.57
2023-06-10T19:28:39.734Z,3.05
2023-06-10T19:32:58.199Z,3.40
2023-06-10T19:37:16.756Z,2.50
2023-06-10T19:41:37.139Z,3.38
2023-06-10T19:45:55.849Z,5.43
2023-06-10T19:50:15.686Z,3.83
2023-06-10T19:54:37.941Z,4.50
2023-06-10T19:58:55.075Z,4.15
2023-06-10T20:07:32.508Z,3.42
2023-06-10T20:11:51.523Z,3.78
2023-06-10T20:16:09.231Z,3.88
2023-06-10T20:20:28.753Z,3.72
2023-06-10T20:24:48.795Z,3.20
2023-06-10T20:29:06.636Z,3.17
2023-06-10T20:37:43.699Z,2.78
2023-06-10T20:42:01.332Z,3.30
2023-06-10T20:46:19.669Z,2.33
2023-06-10T20:50:38.343Z,2.55
2023-06-10T20:54:57.523Z,2.50
2023-06-10T20:59:16.278Z,3.13
2023-06-10T21:03:33.961Z,2.70
2023-06-10T21:07:52.490Z,2.92
2023-06-10T21:12:11.856Z,2.63
2023-06-10T21:16:31.766Z,2.42
2023-06-10T21:20:50.657Z,2.72
2023-06-10T21:25:10.465Z,2.53
2023-06-10T21:29:29.927Z,2.40
2023-06-10T21:33:48.076Z,2.85
2023-06-10T21:38:07.427Z,2.92
2023-06-10T21:42:25.078Z,2.63
2023-06-10T21:46:43.480Z,1.92
2023-06-10T21:51:01.129Z,2.65
2023-06-10T21:55:19.597Z,2.50
2023-06-10T21:59:39.769Z,2.75
2023-06-10T22:03:57.645Z,2.72
2023-06-10T22:12:34.396Z,2.22
2023-06-10T22:16:54.184Z,2.30
2023-06-10T22:21:12.708Z,2.63
2023-06-10T22:25:30.810Z,2.80
2023-06-10T22:29:48.946Z,2.85
2023-06-10T22:34:07.289Z,2.60
2023-06-10T22:38:25.859Z,3.13
2023-06-10T22:42:42.916Z,3.00
2023-06-10T22:47:02.131Z,2.40
2023-06-10T22:51:21.178Z,2.17
2023-06-10T22:55:38.873Z,2.70
2023-06-10T22:59:57.316Z,2.35
2023-06-10T23:04:15.024Z,2.47
2023-06-10T23:08:33.175Z,2.40
2023-06-10T23:12:51.503Z,2.67
2023-06-10T23:17:09.872Z,3.15
2023-06-10T23:21:35.385Z,2.65
2023-06-10T23:25:53.554Z,3.33
2023-06-10T23:30:11.615Z,2.93
2023-06-10T23:34:29.562Z,2.28
2023-06-10T23:38:47.690Z,2.60
2023-06-10T23:43:05.419Z,3.22
2023-06-10T23:47:23.571Z,2.80
2023-06-10T23:51:41.947Z,3.08
2023-06-10T23:55:59.522Z,2.65
